createdAt,value
2023-03-25T00:00:57.981Z,11.60
2023-03-25T00:06:10.160Z,11.50
2023-03-25T00:11:21.272Z,11.40
2023-03-25T00:16:28.348Z,11.40
2023-03-25T00:21:44.775Z,11.10
2023-03-25T00:26:50.725Z,10.90
2023-03-25T00:31:59.366Z,10.90
2023-03-25T00:37:07.956Z,10.80
2023-03-25T00:42:25.969Z,10.60
2023-03-25T00:47:37.813Z,10.50
2023-03-25T00:52:44.684Z,10.60
2023-03-25T00:58:04.850Z,10.80
2023-03-25T01:03:15.955Z,10.80
2023-03-25T01:08:29.396Z,11.00
2023-03-25T01:13:46.557Z,10.90
2023-03-25T01:18:55.495Z,10.80
2023-03-25T01:24:09.223Z,10.70
2023-03-25T01:29:20.996Z,10.70
2023-03-25T01:34:31.854Z,10.60
2023-03-25T01:39:39.306Z,10.60
2023-03-25T01:45:24.035Z,10.60
2023-03-25T01:50:32.607Z,10.40
2023-03-25T01:55:41.293Z,10.50
2023-03-25T02:01:11.402Z,10.50
2023-03-25T02:06:30.289Z,10.80
2023-03-25T02:11:40.046Z,11.00
2023-03-25T02:16:50.461Z,11.10
2023-03-25T02:22:40.307Z,11.10
2023-03-25T02:28:05.717Z,11.20
2023-03-25T02:34:01.654Z,11.20
2023-03-25T02:39:19.948Z,11.20
2023-03-25T02:44:56.558Z,11.40
2023-03-25T02:50:14.520Z,11.20
2023-03-25T02:55:24.535Z,11.30
2023-03-25T03:00:40.615Z,11.40
2023-03-25T03:05:53.451Z,11.30
2023-03-25T03:11:13.704Z,11.10
2023-03-25T03:16:37.882Z,10.90
2023-03-25T03:21:55.725Z,10.70
2023-03-25T03:27:16.625Z,10.30
2023-03-25T03:32:32.005Z,10.10
2023-03-25T03:37:46.139Z,10.20
2023-03-25T03:42:56.622Z,10.40
2023-03-25T03:48:11.364Z,10.40
2023-03-25T03:53:19.583Z,10.60
2023-03-25T03:58:36.614Z,10.60
2023-03-25T04:03:51.280Z,10.70
2023-03-25T04:09:07.113Z,10.60
2023-03-25T04:14:16.925Z,10.60
2023-03-25T04:19:28.701Z,10.60
2023-03-25T04:24:40.193Z,10.80
2023-03-25T04:29:52.049Z,10.80
2023-03-25T04:34:57.716Z,10.90
2023-03-25T04:40:11.462Z,10.90
2023-03-25T04:45:20.806Z,11.00
2023-03-25T04:50:40.091Z,11.00
2023-03-25T04:55:48.129Z,11.10
2023-03-25T05:00:57.294Z,11.20
2023-03-25T05:06:05.454Z,11.10
2023-03-25T05:11:11.290Z,11.20
2023-03-25T05:16:19.133Z,11.10
2023-03-25T05:21:22.188Z,11.00
2023-03-25T05:26:39.001Z,11.00
2023-03-25T05:31:48.446Z,11.00
2023-03-25T05:36:51.342Z,11.20
2023-03-25T05:41:56.329Z,11.20
2023-03-25T05:47:01.468Z,11.20
2023-03-25T05:52:04.300Z,11.20
2023-03-25T05:57:07.002Z,11.20
2023-03-25T06:02:13.965Z,11.30
2023-03-25T06:07:20.262Z,11.00
2023-03-25T06:12:27.415Z,10.80
2023-03-25T06:17:33.456Z,10.90
2023-03-25T06:22:38.743Z,10.90
2023-03-25T06:27:41.394Z,10.90
2023-03-25T06:32:50.359Z,10.70
2023-03-25T06:37:53.256Z,10.60
2023-03-25T06:42:55.962Z,10.70
2023-03-25T06:48:00.034Z,10.80
2023-03-25T06:53:03.482Z,10.90
2023-03-25T06:58:06.556Z,11.20
2023-03-25T07:03:10.793Z,11.50
2023-03-25T07:08:13.495Z,11.70
2023-03-25T07:13:16.210Z,12.00
2023-03-25T07:18:20.203Z,12.40
2023-03-25T07:23:23.062Z,12.90
2023-03-25T07:28:26.396Z,12.90
2023-03-25T07:33:30.436Z,13.10
2023-03-25T07:38:33.418Z,13.60
2023-03-25T07:43:36.215Z,13.50
2023-03-25T07:48:41.223Z,13.40
2023-03-25T07:53:45.217Z,13.20
2023-03-25T07:58:49.643Z,12.70
2023-03-25T08:03:53.691Z,12.30
2023-03-25T08:08:58.076Z,12.20
2023-03-25T08:14:02.884Z,12.70
2023-03-25T08:19:09.409Z,12.60
2023-03-25T08:24:15.495Z,12.30
2023-03-25T08:29:20.196Z,11.90
2023-03-25T08:34:28.440Z,11.90
2023-03-25T08:39:39.516Z,12.10
2023-03-25T08:44:42.842Z,12.00
2023-03-25T08:49:46.827Z,11.80
2023-03-25T08:54:49.475Z,10.90
2023-03-25T08:59:52.233Z,10.00
2023-03-25T09:04:56.293Z,9.60
2023-03-25T09:09:59.156Z,9.30
2023-03-25T09:15:02.197Z,9.30
2023-03-25T09:20:08.599Z,9.30
2023-03-25T09:25:13.996Z,9.30
2023-03-25T09:30:16.952Z,9.50
2023-03-25T09:35:21.124Z,9.40
2023-03-25T09:40:24.699Z,9.10
2023-03-25T09:45:35.877Z,8.80
2023-03-25T09:50:42.186Z,8.80
2023-03-25T09:55:48.083Z,9.10
2023-03-25T10:00:53.048Z,9.50
2023-03-25T10:06:19.593Z,10.00
2023-03-25T10:11:29.179Z,10.40
2023-03-25T10:16:40.912Z,12.30
2023-03-25T10:21:51.928Z,14.20
2023-03-25T10:26:58.528Z,15.00
2023-03-25T10:32:06.202Z,15.70
2023-03-25T10:37:18.115Z,21.00
2023-03-25T10:42:28.509Z,25.10
2023-03-25T10:47:36.976Z,23.60
2023-03-25T10:52:42.078Z,24.30
2023-03-25T10:57:45.746Z,20.10
2023-03-25T11:02:49.352Z,17.80
2023-03-25T11:07:56.390Z,17.70
2023-03-25T11:13:04.340Z,21.80
2023-03-25T11:18:14.081Z,23.90
2023-03-25T11:23:27.326Z,22.40
2023-03-25T11:28:41.204Z,21.20
2023-03-25T11:33:46.865Z,23.50
2023-03-25T11:38:58.021Z,23.40
2023-03-25T11:44:01.337Z,18.40
2023-03-25T11:49:11.768Z,13.70
2023-03-25T11:54:17.578Z,12.10
2023-03-25T11:59:24.629Z,14.30
2023-03-25T12:04:27.489Z,18.50
2023-03-25T12:09:33.346Z,21.90
2023-03-25T12:14:46.316Z,25.40
2023-03-25T12:19:58.800Z,26.10
2023-03-25T12:25:18.466Z,27.80
2023-03-25T12:30:33.593Z,28.00
2023-03-25T12:35:42.792Z,25.90
2023-03-25T12:41:12.646Z,25.60
2023-03-25T12:46:30.495Z,20.10
2023-03-25T12:51:44.459Z,20.50
2023-03-25T12:56:58.450Z,18.40
2023-03-25T13:02:13.023Z,15.60
2023-03-25T13:07:19.440Z,12.50
2023-03-25T13:12:31.597Z,15.10
2023-03-25T13:17:39.318Z,19.60
2023-03-25T13:22:46.708Z,17.90
2023-03-25T13:27:53.594Z,17.60
2023-03-25T13:33:02.014Z,20.40
2023-03-25T13:38:13.316Z,22.40
2023-03-25T13:43:28.314Z,20.20
2023-03-25T13:48:39.431Z,19.00
2023-03-25T13:53:47.746Z,18.30
2023-03-25T13:59:09.986Z,18.20
2023-03-25T14:04:41.515Z,18.20
2023-03-25T14:10:02.210Z,18.70
2023-03-25T14:15:14.826Z,20.20
2023-03-25T14:20:25.657Z,21.40
2023-03-25T14:25:35.477Z,20.80
2023-03-25T14:30:43.092Z,22.90
2023-03-25T14:35:48.511Z,20.70
2023-03-25T14:41:03.308Z,18.10
2023-03-25T14:46:23.490Z,17.50
2023-03-25T14:51:46.577Z,15.60
2023-03-25T14:56:55.689Z,11.30
2023-03-25T15:02:06.922Z,9.80
2023-03-25T15:07:14.188Z,9.40
2023-03-25T15:12:19.986Z,9.20
2023-03-25T15:17:45.416Z,9.30
2023-03-25T15:23:26.656Z,9.50
2023-03-25T15:28:52.476Z,10.30
2023-03-25T15:34:17.428Z,15.60
2023-03-25T15:39:40.060Z,21.70
2023-03-25T15:44:58.485Z,23.20
2023-03-25T15:50:18.543Z,22.00
2023-03-25T15:55:30.253Z,20.70
2023-03-25T16:00:38.611Z,18.40
2023-03-25T16:05:49.230Z,16.10
2023-03-25T16:10:53.277Z,14.60
2023-03-25T16:15:59.686Z,13.40
2023-03-25T16:21:04.673Z,13.80
2023-03-25T16:26:07.814Z,13.80
2023-03-25T16:31:34.358Z,13.50
2023-03-25T16:36:38.969Z,13.30
2023-03-25T16:41:45.694Z,12.80
2023-03-25T16:46:52.896Z,12.40
2023-03-25T16:51:58.452Z,12.20
2023-03-25T16:57:02.389Z,12.00
2023-03-25T17:02:25.064Z,11.70
2023-03-25T17:07:30.526Z,11.50
2023-03-25T17:12:34.629Z,11.30
2023-03-25T17:17:43.987Z,11.10
2023-03-25T17:23:00.781Z,10.70
2023-03-25T17:28:21.915Z,10.50
2023-03-25T17:33:35.656Z,10.30
2023-03-25T17:38:45.520Z,10.20
2023-03-25T17:43:50.865Z,10.10
2023-03-25T17:48:58.310Z,10.00
2023-03-25T17:54:01.631Z,9.80
2023-03-25T17:59:07.955Z,9.80
2023-03-25T18:04:15.111Z,9.70
2023-03-25T18:09:23.821Z,9.60
2023-03-25T18:14:28.211Z,9.70
2023-03-25T18:19:35.515Z,9.80
2023-03-25T18:24:39.027Z,9.60
2023-03-25T18:29:42.047Z,9.70
2023-03-25T18:34:46.704Z,9.80
2023-03-25T18:39:49.366Z,10.00
2023-03-25T18:44:52.707Z,10.10
2023-03-25T18:49:57.939Z,10.30
2023-03-25T18:55:01.023Z,10.40
2023-03-25T19:00:21.372Z,10.30
2023-03-25T19:05:26.344Z,10.20
2023-03-25T19:10:32.239Z,10.10
2023-03-25T19:15:34.922Z,10.20
2023-03-25T19:20:41.040Z,10.30
2023-03-25T19:25:44.986Z,10.10
2023-03-25T19:30:49.001Z,9.80
2023-03-25T19:35:54.952Z,9.80
2023-03-25T19:41:06.668Z,10.10
2023-03-25T19:46:09.513Z,10.20
2023-03-25T19:51:13.784Z,10.30
2023-03-25T19:56:16.553Z,10.60
2023-03-25T20:01:21.844Z,10.80
2023-03-25T20:06:31.222Z,10.90
2023-03-25T20:11:36.252Z,10.80
2023-03-25T20:16:41.956Z,10.20
2023-03-25T21:15:18.856Z,9.10
2023-03-25T21:20:59.423Z,9.00
2023-03-25T21:32:25.568Z,9.10
2023-03-25T21:38:02.467Z,8.90
2023-03-25T21:56:27.347Z,9.30
2023-03-25T22:34:33.267Z,10.00
2023-03-25T22:51:52.270Z,10.20
2023-03-25T23:03:21.152Z,10.10
